Flight Track Log - Related Links

Times and Time Zones

All times are in EST time to prevent confusion due to time zone crossing. See the THY1074 flight status page for this flight to view local times or setup timezone preferences in your user account.

Time Position Orientation Groundspeed Altitude Reporting Facility
EST Latitude Longitude Course Direction KTS MPH feet Rate Location/Type
Mon 03:33:00 AM 41.3940 21.1358 91° East  Level Estimated
Mon 03:34:00 AM 41.3913 21.2644 92° East  Level Estimated
Mon 03:35:00 AM 41.3884 21.3930 92° East  Level Estimated
Mon 03:36:00 AM 41.3854 21.5216 92° East  Level Estimated
Mon 03:37:00 AM 41.3822 21.6502 92° East  Level Estimated
Mon 03:38:00 AM 41.3789 21.7787 92° East  Level Estimated
Mon 03:39:00 AM 41.3754 21.9073 92° East  Level Estimated
Mon 03:40:00 AM 41.3718 22.0358 92° East  Level Estimated
Mon 03:41:00 AM 41.3681 22.1644 92° East  Level Estimated
Mon 03:42:00 AM 41.3642 22.2929 92° East  Level Estimated
Mon 03:43:00 AM 41.3601 22.4213 92° East  Level Estimated
Mon 03:44:00 AM 41.3560 22.5498 92° East  Level Estimated
Mon 03:45:00 AM 41.3517 22.6783 93° East  Level Estimated
Mon 03:46:00 AM 41.3472 22.8067 93° East  Level Estimated
Mon 03:47:00 AM 41.3426 22.9351 93° East  Level Estimated
Mon 03:48:00 AM 41.3378 23.0635 93° East  Level Estimated
Mon 03:49:00 AM 41.3330 23.1919 93° East  Level Estimated
Mon 03:50:00 AM 41.3279 23.3203 93° East  Level Estimated
Mon 03:51:00 AM 41.3228 23.4486 93° East  Level Estimated
Mon 03:52:00 AM 41.3174 23.5769 93° East  Level Estimated
Mon 03:53:00 AM 41.3120 23.7052 93° East  Level Estimated
Mon 03:54:00 AM 41.3064 23.8335 93° East  Level Estimated
Mon 03:55:00 AM 41.3006 23.9618 93° East  Level Estimated
Mon 03:56:00 AM 41.2948 24.0900 93° East  Level Estimated
Mon 03:57:00 AM 41.2887 24.2182 94° East  Level Estimated
Mon 03:58:00 AM 41.2826 24.3464 94° East  Level Estimated
Mon 03:59:00 AM 41.2762 24.4746 94° East  Level Estimated
Mon 04:00:00 AM 41.2698 24.6027 94° East  Level Estimated
Mon 04:01:00 AM 41.2632 24.7308 94° East  Level Estimated
Mon 04:02:00 AM 41.2565 24.8589 94° East  Level Estimated
Mon 04:03:00 AM 41.2496 24.9869 94° East  Level Estimated
Mon 04:04:00 AM 41.2425 25.1150 94° East  Level Estimated
Mon 04:05:00 AM 41.2354 25.2430 94° East  Level Estimated
Mon 04:06:00 AM 41.2281 25.3709 94° East  Level Estimated
Mon 04:07:00 AM 41.2206 25.4989 94° East  Level Estimated
Mon 04:08:00 AM 41.2130 25.6268 94° East  Level Estimated
Mon 04:09:00 AM 41.2053 25.7547 95° East  Level Estimated
Mon 04:10:00 AM 41.1974 25.8826 95° East  Level Estimated
Mon 04:11:00 AM 41.1894 26.0104 95° East  Level Estimated
Mon 04:12:00 AM 41.1813 26.1382 95° East  Level Estimated
Mon 04:13:00 AM 41.1730 26.2659 95° East  Level Estimated
Mon 04:14:00 AM 41.1645 26.3937 95° East  Level Estimated
Mon 04:15:00 AM 41.1560 26.5214 95° East  Level Estimated
Mon 04:16:00 AM 41.1472 26.6490 95° East  Level Estimated
Mon 04:17:00 AM 41.1384 26.7767 95° East  Level Estimated
Mon 04:18:00 AM 41.1294 26.9042 95° East  Level Estimated
Mon 04:19:00 AM 41.1202 27.0318 95° East  Level Estimated
Mon 04:20:00 AM 41.1110 27.1593 95° East  Level Estimated
Mon 04:21:00 AM 41.1015 27.2868 96° East  Level Estimated
Mon 04:22:00 AM 41.0920 27.4143 96° East  Level Estimated
Mon 04:23:00 AM 41.0823 27.5417 96° East  Level Estimated
Mon 04:24:00 AM 41.0724 27.6691 96° East  Level Estimated
Mon 04:25:00 AM 41.0625 27.7964 96° East  Level Estimated
Mon 04:26:00 AM 41.0523 27.9237 96° East  Level Estimated
Mon 04:27:00 AM 41.0421 28.0509 96° East  Level Estimated
Mon 04:28:00 AM 41.0317 28.1782 96° East  Level Estimated
Mon 04:29:00 AM 41.0211 28.3053 96° East  Level Estimated
Mon 04:30:00 AM 41.0104 28.4325 96° East  Level Estimated
Mon 04:31:00 AM 40.9996 28.5596 96° East  Level Estimated
Mon 04:32:00 AM 40.9887 28.6866 96° East  Level Estimated
Mon 04:33:00 AM 40.9776 28.8136 97° East  Level Estimated
Mon 04:34:00 AM 40.9769 28.8211 97° East  Level Estimated
Mon 04:35:00 AM 40.9769 28.8211 21° North  Level Estimated
Mon 04:36:00 AM 40.9769 28.8211 21° North  Level Estimated
Mon 04:37:00 AM 40.9769 28.8211 21° North  Level Estimated
Mon 04:38:00 AM 40.9769 28.8211 21° North  Level Estimated
Mon 04:39:00 AM 40.9769 28.8211 21° North  Level Estimated
Mon 04:40:00 AM 40.9769 28.8211 21° North  Level Estimated
Mon 04:41:00 AM 40.9769 28.8211 21° North  Level Estimated
Mon 04:42:00 AM 40.9769 28.8211 21° North  Level Estimated
Mon 04:43:00 AM 40.9769 28.8211 21° North  Level Estimated
Mon 04:44:00 AM 40.9769 28.8211 21° North  Level Estimated
Mon 04:45:00 AM 40.9769 28.8211 21° North  Level Estimated
Mon 04:46:00 AM 40.9769 28.8211 21° North  Level Estimated
Mon 04:47:00 AM 40.9769 28.8211 21° North  Level Estimated
Mon 04:48:00 AM 40.9769 28.8211 21° North  Level Estimated
Mon 04:49:00 AM 40.9769 28.8211 21° North  Level Estimated

Login

Don't have an account? Register now (free) for customized features, flight alerts, and more!